sensor_id;sensor_type;location;lat;lon;timestamp;P1;durP1;ratioP1;P2;durP2;ratioP2
577;SDS011;275;48.492;9.214;2022-10-16T00:01:23;2.43;;;1.63;;
577;SDS011;275;48.492;9.214;2022-10-16T00:03:51;3.17;;;1.57;;
577;SDS011;275;48.492;9.214;2022-10-16T00:06:19;2.33;;;1.40;;
577;SDS011;275;48.492;9.214;2022-10-16T00:08:47;3.57;;;1.63;;
577;SDS011;275;48.492;9.214;2022-10-16T00:11:19;2.50;;;1.40;;
577;SDS011;275;48.492;9.214;2022-10-16T00:13:48;6.60;;;1.50;;
577;SDS011;275;48.492;9.214;2022-10-16T00:16:17;2.30;;;1.17;;
577;SDS011;275;48.492;9.214;2022-10-16T00:18:45;5.43;;;1.77;;
577;SDS011;275;48.492;9.214;2022-10-16T00:21:13;2.70;;;1.27;;
577;SDS011;275;48.492;9.214;2022-10-16T00:23:41;5.77;;;1.50;;
577;SDS011;275;48.492;9.214;2022-10-16T00:26:09;3.60;;;1.50;;
577;SDS011;275;48.492;9.214;2022-10-16T00:28:39;3.27;;;1.50;;
577;SDS011;275;48.492;9.214;2022-10-16T00:31:06;6.20;;;1.60;;
577;SDS011;275;48.492;9.214;2022-10-16T00:33:35;3.30;;;1.67;;
577;SDS011;275;48.492;9.214;2022-10-16T00:36:03;3.27;;;1.70;;
577;SDS011;275;48.492;9.214;2022-10-16T00:38:31;2.80;;;1.70;;
577;SDS011;275;48.492;9.214;2022-10-16T00:40:58;3.77;;;1.43;;
577;SDS011;275;48.492;9.214;2022-10-16T00:43:33;2.47;;;1.47;;
577;SDS011;275;48.492;9.214;2022-10-16T00:46:04;2.67;;;1.50;;
577;SDS011;275;48.492;9.214;2022-10-16T00:48:36;2.60;;;1.53;;
577;SDS011;275;48.492;9.214;2022-10-16T00:51:04;2.97;;;1.50;;
577;SDS011;275;48.492;9.214;2022-10-16T00:53:33;2.97;;;1.63;;
577;SDS011;275;48.492;9.214;2022-10-16T00:56:01;4.53;;;1.50;;
577;SDS011;275;48.492;9.214;2022-10-16T00:58:28;2.90;;;1.33;;
577;SDS011;275;48.492;9.214;2022-10-16T01:00:57;3.10;;;1.70;;
577;SDS011;275;48.492;9.214;2022-10-16T01:03:27;4.00;;;1.73;;
577;SDS011;275;48.492;9.214;2022-10-16T01:05:59;2.83;;;1.60;;
577;SDS011;275;48.492;9.214;2022-10-16T01:08:42;2.90;;;1.60;;
577;SDS011;275;48.492;9.214;2022-10-16T01:11:16;2.27;;;1.00;;
577;SDS011;275;48.492;9.214;2022-10-16T01:13:48;2.27;;;1.23;;
577;SDS011;275;48.492;9.214;2022-10-16T01:16:22;2.63;;;1.23;;
577;SDS011;275;48.492;9.214;2022-10-16T01:18:59;5.70;;;1.80;;
577;SDS011;275;48.492;9.214;2022-10-16T01:21:33;2.63;;;1.60;;
577;SDS011;275;48.492;9.214;2022-10-16T01:24:06;3.30;;;1.50;;
577;SDS011;275;48.492;9.214;2022-10-16T01:26:45;2.70;;;1.30;;
577;SDS011;275;48.492;9.214;2022-10-16T01:29:20;2.37;;;1.30;;
577;SDS011;275;48.492;9.214;2022-10-16T01:31:53;4.40;;;1.40;;
577;SDS011;275;48.492;9.214;2022-10-16T01:34:24;5.70;;;1.27;;
577;SDS011;275;48.492;9.214;2022-10-16T01:36:57;8.80;;;2.37;;
577;SDS011;275;48.492;9.214;2022-10-16T01:39:32;3.10;;;1.43;;
577;SDS011;275;48.492;9.214;2022-10-16T01:42:04;3.13;;;1.60;;
577;SDS011;275;48.492;9.214;2022-10-16T01:44:35;5.10;;;1.90;;
577;SDS011;275;48.492;9.214;2022-10-16T01:47:05;2.90;;;1.87;;
577;SDS011;275;48.492;9.214;2022-10-16T01:49:34;2.50;;;1.40;;
577;SDS011;275;48.492;9.214;2022-10-16T01:52:04;3.93;;;1.57;;
577;SDS011;275;48.492;9.214;2022-10-16T01:54:34;4.33;;;1.80;;
577;SDS011;275;48.492;9.214;2022-10-16T01:57:03;3.60;;;2.00;;
577;SDS011;275;48.492;9.214;2022-10-16T01:59:32;3.90;;;1.70;;
577;SDS011;275;48.492;9.214;2022-10-16T02:02:04;6.00;;;2.23;;
577;SDS011;275;48.492;9.214;2022-10-16T02:04:34;2.73;;;1.70;;
577;SDS011;275;48.492;9.214;2022-10-16T02:07:04;2.97;;;1.50;;
577;SDS011;275;48.492;9.214;2022-10-16T02:09:33;3.20;;;1.57;;
577;SDS011;275;48.492;9.214;2022-10-16T02:12:01;3.50;;;1.60;;
577;SDS011;275;48.492;9.214;2022-10-16T02:14:35;2.53;;;1.43;;
577;SDS011;275;48.492;9.214;2022-10-16T02:17:11;3.53;;;1.40;;
577;SDS011;275;48.492;9.214;2022-10-16T02:19:39;3.53;;;1.90;;
577;SDS011;275;48.492;9.214;2022-10-16T02:22:08;2.90;;;1.60;;
577;SDS011;275;48.492;9.214;2022-10-16T02:24:43;3.03;;;1.30;;
577;SDS011;275;48.492;9.214;2022-10-16T02:27:16;4.00;;;1.50;;
577;SDS011;275;48.492;9.214;2022-10-16T02:29:49;3.07;;;1.47;;
577;SDS011;275;48.492;9.214;2022-10-16T02:32:25;2.47;;;1.47;;
577;SDS011;275;48.492;9.214;2022-10-16T02:34:56;5.00;;;1.90;;
577;SDS011;275;48.492;9.214;2022-10-16T02:37:26;3.80;;;1.70;;
577;SDS011;275;48.492;9.214;2022-10-16T02:39:54;3.60;;;1.57;;
577;SDS011;275;48.492;9.214;2022-10-16T02:42:27;4.97;;;1.67;;
577;SDS011;275;48.492;9.214;2022-10-16T02:44:55;5.90;;;2.00;;
577;SDS011;275;48.492;9.214;2022-10-16T02:47:22;3.70;;;1.63;;
577;SDS011;275;48.492;9.214;2022-10-16T02:49:50;4.70;;;2.00;;
577;SDS011;275;48.492;9.214;2022-10-16T02:52:17;5.37;;;1.80;;
577;SDS011;275;48.492;9.214;2022-10-16T02:54:44;4.23;;;1.53;;
577;SDS011;275;48.492;9.214;2022-10-16T02:57:11;3.53;;;1.60;;
577;SDS011;275;48.492;9.214;2022-10-16T02:59:38;2.10;;;1.20;;
577;SDS011;275;48.492;9.214;2022-10-16T03:02:04;4.00;;;1.80;;
577;SDS011;275;48.492;9.214;2022-10-16T03:04:36;3.03;;;1.60;;
577;SDS011;275;48.492;9.214;2022-10-16T03:07:03;3.40;;;1.80;;
577;SDS011;275;48.492;9.214;2022-10-16T03:09:30;5.67;;;1.83;;
577;SDS011;275;48.492;9.214;2022-10-16T03:11:56;3.93;;;1.90;;
577;SDS011;275;48.492;9.214;2022-10-16T03:14:23;2.63;;;1.70;;
577;SDS011;275;48.492;9.214;2022-10-16T03:16:51;2.40;;;1.60;;
577;SDS011;275;48.492;9.214;2022-10-16T03:19:17;3.33;;;1.70;;
577;SDS011;275;48.492;9.214;2022-10-16T03:21:46;3.30;;;2.10;;
577;SDS011;275;48.492;9.214;2022-10-16T03:24:13;4.40;;;3.03;;
577;SDS011;275;48.492;9.214;2022-10-16T03:26:39;5.30;;;3.07;;
577;SDS011;275;48.492;9.214;2022-10-16T03:29:07;4.33;;;3.50;;
577;SDS011;275;48.492;9.214;2022-10-16T03:31:34;4.50;;;2.87;;
577;SDS011;275;48.492;9.214;2022-10-16T03:34:00;5.57;;;2.90;;
577;SDS011;275;48.492;9.214;2022-10-16T03:36:27;3.63;;;2.43;;
577;SDS011;275;48.492;9.214;2022-10-16T03:38:55;4.80;;;2.53;;
577;SDS011;275;48.492;9.214;2022-10-16T03:41:22;5.73;;;2.80;;
577;SDS011;275;48.492;9.214;2022-10-16T03:43:49;3.37;;;2.47;;
577;SDS011;275;48.492;9.214;2022-10-16T03:46:16;4.13;;;2.40;;
577;SDS011;275;48.492;9.214;2022-10-16T03:48:43;4.07;;;2.10;;
577;SDS011;275;48.492;9.214;2022-10-16T03:51:09;6.10;;;2.10;;
577;SDS011;275;48.492;9.214;2022-10-16T03:53:36;3.23;;;2.13;;
577;SDS011;275;48.492;9.214;2022-10-16T03:56:05;2.90;;;2.17;;
577;SDS011;275;48.492;9.214;2022-10-16T03:58:32;5.03;;;2.57;;
577;SDS011;275;48.492;9.214;2022-10-16T04:00:59;3.33;;;1.83;;
577;SDS011;275;48.492;9.214;2022-10-16T04:03:25;3.50;;;1.90;;
577;SDS011;275;48.492;9.214;2022-10-16T04:05:52;4.90;;;1.80;;
577;SDS011;275;48.492;9.214;2022-10-16T04:08:19;3.20;;;1.83;;
577;SDS011;275;48.492;9.214;2022-10-16T04:10:46;3.97;;;2.50;;
577;SDS011;275;48.492;9.214;2022-10-16T04:13:14;3.13;;;1.83;;
577;SDS011;275;48.492;9.214;2022-10-16T04:15:41;4.80;;;2.90;;
577;SDS011;275;48.492;9.214;2022-10-16T04:18:08;4.80;;;2.60;;
577;SDS011;275;48.492;9.214;2022-10-16T04:20:35;3.80;;;2.33;;
577;SDS011;275;48.492;9.214;2022-10-16T04:23:02;5.07;;;2.70;;
577;SDS011;275;48.492;9.214;2022-10-16T04:25:29;5.60;;;2.33;;
577;SDS011;275;48.492;9.214;2022-10-16T04:27:56;3.77;;;2.70;;
577;SDS011;275;48.492;9.214;2022-10-16T04:30:25;7.40;;;2.50;;
577;SDS011;275;48.492;9.214;2022-10-16T04:32:52;4.37;;;2.30;;
577;SDS011;275;48.492;9.214;2022-10-16T04:35:19;3.87;;;2.30;;
577;SDS011;275;48.492;9.214;2022-10-16T04:37:47;5.63;;;2.60;;
577;SDS011;275;48.492;9.214;2022-10-16T04:40:14;5.60;;;2.50;;
577;SDS011;275;48.492;9.214;2022-10-16T04:42:41;4.43;;;2.67;;
577;SDS011;275;48.492;9.214;2022-10-16T04:45:08;3.83;;;2.77;;
577;SDS011;275;48.492;9.214;2022-10-16T04:47:36;5.00;;;2.60;;
577;SDS011;275;48.492;9.214;2022-10-16T04:50:03;3.30;;;2.60;;
577;SDS011;275;48.492;9.214;2022-10-16T04:52:31;4.50;;;2.70;;
577;SDS011;275;48.492;9.214;2022-10-16T04:54:58;5.50;;;2.97;;
577;SDS011;275;48.492;9.214;2022-10-16T04:57:27;3.10;;;2.13;;
577;SDS011;275;48.492;9.214;2022-10-16T04:59:54;4.27;;;2.40;;
577;SDS011;275;48.492;9.214;2022-10-16T05:02:20;4.93;;;2.33;;
577;SDS011;275;48.492;9.214;2022-10-16T05:04:49;8.33;;;2.90;;
577;SDS011;275;48.492;9.214;2022-10-16T05:07:15;8.13;;;2.80;;
577;SDS011;275;48.492;9.214;2022-10-16T05:09:42;2.93;;;2.47;;
577;SDS011;275;48.492;9.214;2022-10-16T05:12:09;3.33;;;2.47;;
577;SDS011;275;48.492;9.214;2022-10-16T05:14:36;4.67;;;2.90;;
577;SDS011;275;48.492;9.214;2022-10-16T05:17:03;5.37;;;2.40;;
577;SDS011;275;48.492;9.214;2022-10-16T05:19:29;3.67;;;2.20;;
577;SDS011;275;48.492;9.214;2022-10-16T05:21:58;3.83;;;2.33;;
577;SDS011;275;48.492;9.214;2022-10-16T05:24:24;6.00;;;2.50;;
577;SDS011;275;48.492;9.214;2022-10-16T05:26:51;4.53;;;2.77;;
577;SDS011;275;48.492;9.214;2022-10-16T05:29:18;3.27;;;2.73;;
577;SDS011;275;48.492;9.214;2022-10-16T05:31:46;4.00;;;3.10;;
577;SDS011;275;48.492;9.214;2022-10-16T05:34:12;4.47;;;3.60;;
577;SDS011;275;48.492;9.214;2022-10-16T05:36:39;4.50;;;4.10;;
577;SDS011;275;48.492;9.214;2022-10-16T05:39:07;5.30;;;4.20;;
577;SDS011;275;48.492;9.214;2022-10-16T05:41:34;6.50;;;4.03;;
577;SDS011;275;48.492;9.214;2022-10-16T05:44:03;5.03;;;3.27;;
577;SDS011;275;48.492;9.214;2022-10-16T05:46:30;5.90;;;3.67;;
577;SDS011;275;48.492;9.214;2022-10-16T05:48:58;6.67;;;4.07;;
577;SDS011;275;48.492;9.214;2022-10-16T05:51:25;6.33;;;3.70;;
577;SDS011;275;48.492;9.214;2022-10-16T05:53:52;7.33;;;4.00;;
577;SDS011;275;48.492;9.214;2022-10-16T05:56:20;6.00;;;3.77;;
577;SDS011;275;48.492;9.214;2022-10-16T05:58:47;8.73;;;4.10;;
577;SDS011;275;48.492;9.214;2022-10-16T06:01:14;8.00;;;4.77;;
577;SDS011;275;48.492;9.214;2022-10-16T06:03:42;9.67;;;7.70;;
577;SDS011;275;48.492;9.214;2022-10-16T06:06:10;9.13;;;5.50;;
577;SDS011;275;48.492;9.214;2022-10-16T06:08:38;9.47;;;4.90;;
577;SDS011;275;48.492;9.214;2022-10-16T06:11:07;4.37;;;3.97;;
577;SDS011;275;48.492;9.214;2022-10-16T06:13:36;5.90;;;3.50;;
577;SDS011;275;48.492;9.214;2022-10-16T06:16:04;6.60;;;3.43;;
577;SDS011;275;48.492;9.214;2022-10-16T06:18:31;6.40;;;3.90;;
577;SDS011;275;48.492;9.214;2022-10-16T06:20:58;5.47;;;2.90;;
577;SDS011;275;48.492;9.214;2022-10-16T06:23:25;4.93;;;4.10;;
577;SDS011;275;48.492;9.214;2022-10-16T06:25:54;5.13;;;3.00;;
577;SDS011;275;48.492;9.214;2022-10-16T06:28:30;4.43;;;2.80;;
577;SDS011;275;48.492;9.214;2022-10-16T06:30:59;6.83;;;3.30;;
577;SDS011;275;48.492;9.214;2022-10-16T06:33:26;5.10;;;2.97;;
577;SDS011;275;48.492;9.214;2022-10-16T06:35:53;4.20;;;2.93;;
577;SDS011;275;48.492;9.214;2022-10-16T06:38:25;6.27;;;3.10;;
577;SDS011;275;48.492;9.214;2022-10-16T06:40:53;6.03;;;3.00;;
577;SDS011;275;48.492;9.214;2022-10-16T06:43:20;5.20;;;3.50;;
577;SDS011;275;48.492;9.214;2022-10-16T06:45:49;6.17;;;3.47;;
577;SDS011;275;48.492;9.214;2022-10-16T06:48:18;8.07;;;4.30;;
577;SDS011;275;48.492;9.214;2022-10-16T06:50:54;4.20;;;3.00;;
577;SDS011;275;48.492;9.214;2022-10-16T06:53:22;5.70;;;3.13;;
577;SDS011;275;48.492;9.214;2022-10-16T06:55:49;5.70;;;3.00;;
577;SDS011;275;48.492;9.214;2022-10-16T06:58:16;6.03;;;3.50;;
577;SDS011;275;48.492;9.214;2022-10-16T07:00:42;7.00;;;3.70;;
577;SDS011;275;48.492;9.214;2022-10-16T07:03:09;5.10;;;3.27;;
577;SDS011;275;48.492;9.214;2022-10-16T07:05:38;7.60;;;5.20;;
577;SDS011;275;48.492;9.214;2022-10-16T07:08:05;7.20;;;4.63;;
577;SDS011;275;48.492;9.214;2022-10-16T07:10:32;6.87;;;5.00;;
577;SDS011;275;48.492;9.214;2022-10-16T07:13:00;7.43;;;3.87;;
577;SDS011;275;48.492;9.214;2022-10-16T07:15:27;5.77;;;3.87;;
577;SDS011;275;48.492;9.214;2022-10-16T07:17:54;8.33;;;3.47;;
577;SDS011;275;48.492;9.214;2022-10-16T07:20:21;5.47;;;3.03;;
577;SDS011;275;48.492;9.214;2022-10-16T07:22:49;7.20;;;3.00;;
577;SDS011;275;48.492;9.214;2022-10-16T07:25:16;6.07;;;2.83;;
577;SDS011;275;48.492;9.214;2022-10-16T07:27:43;5.40;;;2.97;;
577;SDS011;275;48.492;9.214;2022-10-16T07:30:10;6.20;;;3.50;;
577;SDS011;275;48.492;9.214;2022-10-16T07:32:37;4.47;;;3.20;;
577;SDS011;275;48.492;9.214;2022-10-16T07:35:04;4.70;;;3.60;;
577;SDS011;275;48.492;9.214;2022-10-16T07:37:32;6.20;;;3.63;;
577;SDS011;275;48.492;9.214;2022-10-16T07:40:00;8.70;;;3.47;;
577;SDS011;275;48.492;9.214;2022-10-16T07:42:27;6.40;;;3.10;;
577;SDS011;275;48.492;9.214;2022-10-16T07:44:54;4.67;;;3.37;;
577;SDS011;275;48.492;9.214;2022-10-16T07:47:21;7.87;;;3.80;;
577;SDS011;275;48.492;9.214;2022-10-16T07:49:48;6.90;;;3.40;;
577;SDS011;275;48.492;9.214;2022-10-16T07:52:15;3.87;;;2.60;;
577;SDS011;275;48.492;9.214;2022-10-16T07:54:42;8.53;;;4.53;;
577;SDS011;275;48.492;9.214;2022-10-16T07:57:10;6.53;;;3.90;;
577;SDS011;275;48.492;9.214;2022-10-16T07:59:43;7.20;;;4.07;;
577;SDS011;275;48.492;9.214;2022-10-16T08:02:10;8.13;;;2.93;;
577;SDS011;275;48.492;9.214;2022-10-16T08:04:37;4.80;;;2.00;;
577;SDS011;275;48.492;9.214;2022-10-16T08:07:04;5.07;;;3.20;;
577;SDS011;275;48.492;9.214;2022-10-16T08:09:33;7.53;;;3.63;;
577;SDS011;275;48.492;9.214;2022-10-16T08:12:00;3.80;;;2.67;;
577;SDS011;275;48.492;9.214;2022-10-16T08:14:28;4.90;;;3.27;;
577;SDS011;275;48.492;9.214;2022-10-16T08:16:55;7.07;;;3.07;;
577;SDS011;275;48.492;9.214;2022-10-16T08:19:22;6.37;;;2.87;;
577;SDS011;275;48.492;9.214;2022-10-16T08:21:49;5.57;;;3.23;;
577;SDS011;275;48.492;9.214;2022-10-16T08:24:16;3.90;;;2.53;;
577;SDS011;275;48.492;9.214;2022-10-16T08:26:42;5.63;;;2.90;;
577;SDS011;275;48.492;9.214;2022-10-16T08:29:09;4.10;;;3.07;;
577;SDS011;275;48.492;9.214;2022-10-16T08:31:37;5.47;;;3.87;;
577;SDS011;275;48.492;9.214;2022-10-16T08:34:04;4.00;;;3.07;;
577;SDS011;275;48.492;9.214;2022-10-16T08:36:31;7.07;;;3.10;;
577;SDS011;275;48.492;9.214;2022-10-16T08:38:58;6.03;;;3.77;;
577;SDS011;275;48.492;9.214;2022-10-16T08:41:31;6.33;;;3.30;;
577;SDS011;275;48.492;9.214;2022-10-16T08:47:35;8.23;;;3.20;;
577;SDS011;275;48.492;9.214;2022-10-16T08:50:12;5.07;;;2.97;;
577;SDS011;275;48.492;9.214;2022-10-16T08:52:43;6.17;;;3.53;;
577;SDS011;275;48.492;9.214;2022-10-16T08:55:16;5.20;;;3.07;;
577;SDS011;275;48.492;9.214;2022-10-16T08:58:10;7.70;;;2.70;;
577;SDS011;275;48.492;9.214;2022-10-16T09:00:38;4.83;;;2.50;;
577;SDS011;275;48.492;9.214;2022-10-16T09:03:10;4.80;;;2.70;;
577;SDS011;275;48.492;9.214;2022-10-16T09:05:55;3.63;;;2.00;;
577;SDS011;275;48.492;9.214;2022-10-16T09:08:51;4.60;;;2.20;;
577;SDS011;275;48.492;9.214;2022-10-16T09:11:30;4.17;;;2.30;;
577;SDS011;275;48.492;9.214;2022-10-16T09:14:06;8.47;;;2.30;;
577;SDS011;275;48.492;9.214;2022-10-16T09:16:46;3.87;;;2.10;;
577;SDS011;275;48.492;9.214;2022-10-16T09:19:20;4.10;;;2.67;;
577;SDS011;275;48.492;9.214;2022-10-16T09:21:52;4.30;;;2.10;;
577;SDS011;275;48.492;9.214;2022-10-16T09:24:23;2.83;;;1.73;;
577;SDS011;275;48.492;9.214;2022-10-16T09:26:52;6.40;;;2.20;;
577;SDS011;275;48.492;9.214;2022-10-16T09:29:19;4.87;;;2.70;;
577;SDS011;275;48.492;9.214;2022-10-16T09:31:50;5.43;;;2.60;;
577;SDS011;275;48.492;9.214;2022-10-16T09:34:20;4.33;;;2.80;;
577;SDS011;275;48.492;9.214;2022-10-16T09:36:54;4.60;;;3.00;;
577;SDS011;275;48.492;9.214;2022-10-16T09:39:23;4.90;;;2.67;;
577;SDS011;275;48.492;9.214;2022-10-16T09:41:50;5.73;;;2.37;;
577;SDS011;275;48.492;9.214;2022-10-16T09:44:18;3.70;;;2.30;;
577;SDS011;275;48.492;9.214;2022-10-16T09:46:49;7.77;;;3.30;;
577;SDS011;275;48.492;9.214;2022-10-16T09:49:27;4.70;;;3.30;;
577;SDS011;275;48.492;9.214;2022-10-16T09:52:02;4.10;;;2.70;;
577;SDS011;275;48.492;9.214;2022-10-16T09:54:30;6.90;;;3.90;;
577;SDS011;275;48.492;9.214;2022-10-16T09:57:03;5.37;;;2.23;;
577;SDS011;275;48.492;9.214;2022-10-16T09:59:31;5.20;;;3.10;;
577;SDS011;275;48.492;9.214;2022-10-16T10:02:01;4.27;;;2.57;;
577;SDS011;275;48.492;9.214;2022-10-16T10:04:38;6.03;;;2.67;;
577;SDS011;275;48.492;9.214;2022-10-16T10:07:15;4.93;;;2.17;;
577;SDS011;275;48.492;9.214;2022-10-16T10:09:44;4.33;;;2.60;;
577;SDS011;275;48.492;9.214;2022-10-16T10:12:19;8.70;;;3.63;;
577;SDS011;275;48.492;9.214;2022-10-16T10:14:48;3.20;;;2.00;;
577;SDS011;275;48.492;9.214;2022-10-16T10:17:18;6.37;;;3.47;;
577;SDS011;275;48.492;9.214;2022-10-16T10:19:48;5.90;;;3.83;;
577;SDS011;275;48.492;9.214;2022-10-16T10:22:18;3.93;;;2.53;;
577;SDS011;275;48.492;9.214;2022-10-16T10:24:57;4.90;;;2.70;;
577;SDS011;275;48.492;9.214;2022-10-16T10:27:48;4.90;;;2.50;;
577;SDS011;275;48.492;9.214;2022-10-16T10:30:33;5.30;;;2.80;;
577;SDS011;275;48.492;9.214;2022-10-16T10:33:11;5.40;;;3.40;;
577;SDS011;275;48.492;9.214;2022-10-16T10:35:57;8.67;;;3.50;;
577;SDS011;275;48.492;9.214;2022-10-16T10:38:39;7.07;;;3.13;;
577;SDS011;275;48.492;9.214;2022-10-16T10:41:17;4.33;;;2.50;;
577;SDS011;275;48.492;9.214;2022-10-16T10:44:00;4.30;;;1.90;;
577;SDS011;275;48.492;9.214;2022-10-16T10:46:34;4.80;;;2.47;;
577;SDS011;275;48.492;9.214;2022-10-16T10:52:05;4.53;;;2.07;;
577;SDS011;275;48.492;9.214;2022-10-16T10:54:45;4.80;;;2.30;;
577;SDS011;275;48.492;9.214;2022-10-16T10:57:20;3.67;;;2.20;;
577;SDS011;275;48.492;9.214;2022-10-16T10:59:57;6.03;;;1.90;;
577;SDS011;275;48.492;9.214;2022-10-16T11:02:36;7.03;;;2.43;;
577;SDS011;275;48.492;9.214;2022-10-16T11:05:28;5.77;;;2.70;;
577;SDS011;275;48.492;9.214;2022-10-16T11:08:04;4.23;;;2.10;;
577;SDS011;275;48.492;9.214;2022-10-16T11:10:38;2.70;;;1.57;;
577;SDS011;275;48.492;9.214;2022-10-16T11:13:13;3.43;;;1.20;;
577;SDS011;275;48.492;9.214;2022-10-16T11:15:46;4.70;;;1.70;;
577;SDS011;275;48.492;9.214;2022-10-16T11:18:18;4.73;;;2.10;;
577;SDS011;275;48.492;9.214;2022-10-16T11:20:49;5.03;;;1.50;;
577;SDS011;275;48.492;9.214;2022-10-16T11:23:22;3.17;;;1.73;;
577;SDS011;275;48.492;9.214;2022-10-16T11:25:53;5.60;;;3.50;;
577;SDS011;275;48.492;9.214;2022-10-16T11:28:23;3.70;;;2.60;;
577;SDS011;275;48.492;9.214;2022-10-16T11:30:57;5.10;;;2.57;;
577;SDS011;275;48.492;9.214;2022-10-16T11:33:28;3.37;;;2.07;;
577;SDS011;275;48.492;9.214;2022-10-16T11:36:03;4.13;;;2.03;;
577;SDS011;275;48.492;9.214;2022-10-16T11:38:39;2.63;;;1.57;;
577;SDS011;275;48.492;9.214;2022-10-16T11:41:15;3.20;;;2.10;;
577;SDS011;275;48.492;9.214;2022-10-16T11:43:52;5.00;;;2.07;;
577;SDS011;275;48.492;9.214;2022-10-16T11:46:30;4.17;;;3.20;;
577;SDS011;275;48.492;9.214;2022-10-16T11:49:00;5.13;;;3.47;;
577;SDS011;275;48.492;9.214;2022-10-16T11:51:33;4.97;;;2.00;;
577;SDS011;275;48.492;9.214;2022-10-16T11:54:08;4.70;;;2.63;;
577;SDS011;275;48.492;9.214;2022-10-16T11:56:43;8.63;;;3.97;;
577;SDS011;275;48.492;9.214;2022-10-16T11:59:13;3.97;;;3.00;;
577;SDS011;275;48.492;9.214;2022-10-16T12:01:47;4.27;;;2.63;;
577;SDS011;275;48.492;9.214;2022-10-16T12:04:20;3.80;;;1.57;;
577;SDS011;275;48.492;9.214;2022-10-16T12:06:55;3.00;;;1.50;;
577;SDS011;275;48.492;9.214;2022-10-16T12:09:27;5.50;;;1.90;;
577;SDS011;275;48.492;9.214;2022-10-16T12:11:55;4.87;;;1.70;;
577;SDS011;275;48.492;9.214;2022-10-16T12:14:33;3.10;;;1.70;;
577;SDS011;275;48.492;9.214;2022-10-16T12:17:02;3.57;;;2.03;;
577;SDS011;275;48.492;9.214;2022-10-16T12:19:56;3.97;;;2.27;;
577;SDS011;275;48.492;9.214;2022-10-16T12:22:24;5.40;;;2.20;;
577;SDS011;275;48.492;9.214;2022-10-16T12:24:56;4.10;;;2.20;;
577;SDS011;275;48.492;9.214;2022-10-16T12:27:25;5.30;;;1.90;;
577;SDS011;275;48.492;9.214;2022-10-16T12:29:55;3.90;;;1.53;;
577;SDS011;275;48.492;9.214;2022-10-16T12:32:27;5.47;;;4.20;;
577;SDS011;275;48.492;9.214;2022-10-16T12:34:56;3.87;;;2.20;;
577;SDS011;275;48.492;9.214;2022-10-16T12:37:25;3.20;;;1.73;;
577;SDS011;275;48.492;9.214;2022-10-16T12:39:55;4.80;;;2.67;;
577;SDS011;275;48.492;9.214;2022-10-16T12:42:32;3.90;;;3.33;;
577;SDS011;275;48.492;9.214;2022-10-16T12:45:00;3.03;;;1.90;;
577;SDS011;275;48.492;9.214;2022-10-16T12:47:37;4.23;;;3.13;;
577;SDS011;275;48.492;9.214;2022-10-16T12:50:29;4.53;;;4.07;;
577;SDS011;275;48.492;9.214;2022-10-16T12:52:58;5.53;;;2.70;;
577;SDS011;275;48.492;9.214;2022-10-16T12:55:30;5.10;;;2.83;;
577;SDS011;275;48.492;9.214;2022-10-16T12:58:15;4.30;;;2.47;;
577;SDS011;275;48.492;9.214;2022-10-16T13:01:03;3.97;;;2.30;;
577;SDS011;275;48.492;9.214;2022-10-16T13:03:43;5.07;;;3.00;;
577;SDS011;275;48.492;9.214;2022-10-16T13:06:26;5.43;;;2.47;;
577;SDS011;275;48.492;9.214;2022-10-16T13:09:04;4.60;;;2.30;;
577;SDS011;275;48.492;9.214;2022-10-16T13:11:48;5.30;;;3.13;;
577;SDS011;275;48.492;9.214;2022-10-16T13:14:32;5.80;;;2.23;;
577;SDS011;275;48.492;9.214;2022-10-16T13:17:15;3.80;;;1.70;;
577;SDS011;275;48.492;9.214;2022-10-16T13:19:51;4.60;;;2.10;;
577;SDS011;275;48.492;9.214;2022-10-16T13:22:29;6.57;;;5.20;;
577;SDS011;275;48.492;9.214;2022-10-16T13:25:03;3.70;;;2.43;;
577;SDS011;275;48.492;9.214;2022-10-16T13:27:43;5.10;;;2.77;;
577;SDS011;275;48.492;9.214;2022-10-16T13:30:16;3.43;;;2.37;;
577;SDS011;275;48.492;9.214;2022-10-16T13:32:46;3.30;;;1.70;;
577;SDS011;275;48.492;9.214;2022-10-16T13:35:21;3.13;;;2.03;;
577;SDS011;275;48.492;9.214;2022-10-16T13:37:49;4.60;;;2.07;;
577;SDS011;275;48.492;9.214;2022-10-16T13:40:21;4.83;;;2.07;;
577;SDS011;275;48.492;9.214;2022-10-16T13:42:51;4.80;;;2.33;;
577;SDS011;275;48.492;9.214;2022-10-16T13:45:21;3.80;;;2.10;;
577;SDS011;275;48.492;9.214;2022-10-16T13:47:49;4.03;;;2.27;;
577;SDS011;275;48.492;9.214;2022-10-16T13:50:17;4.23;;;2.13;;
577;SDS011;275;48.492;9.214;2022-10-16T13:52:44;3.20;;;2.00;;
577;SDS011;275;48.492;9.214;2022-10-16T13:55:12;3.70;;;2.00;;
577;SDS011;275;48.492;9.214;2022-10-16T13:57:39;4.00;;;3.10;;
577;SDS011;275;48.492;9.214;2022-10-16T14:02:55;4.63;;;2.13;;
577;SDS011;275;48.492;9.214;2022-10-16T14:05:27;3.63;;;2.00;;
577;SDS011;275;48.492;9.214;2022-10-16T14:07:54;4.40;;;2.77;;
577;SDS011;275;48.492;9.214;2022-10-16T14:10:23;4.53;;;3.10;;
577;SDS011;275;48.492;9.214;2022-10-16T14:12:56;3.53;;;2.30;;
577;SDS011;275;48.492;9.214;2022-10-16T14:15:25;5.10;;;2.47;;
577;SDS011;275;48.492;9.214;2022-10-16T14:17:53;3.40;;;2.10;;
577;SDS011;275;48.492;9.214;2022-10-16T14:20:21;4.20;;;3.00;;
577;SDS011;275;48.492;9.214;2022-10-16T14:22:58;5.97;;;2.80;;
577;SDS011;275;48.492;9.214;2022-10-16T14:25:27;4.40;;;3.30;;
577;SDS011;275;48.492;9.214;2022-10-16T14:27:56;4.30;;;2.97;;
577;SDS011;275;48.492;9.214;2022-10-16T14:30:30;3.50;;;2.00;;
577;SDS011;275;48.492;9.214;2022-10-16T14:32:58;4.30;;;2.23;;
577;SDS011;275;48.492;9.214;2022-10-16T14:35:28;6.10;;;2.73;;
577;SDS011;275;48.492;9.214;2022-10-16T14:37:57;3.53;;;2.20;;
577;SDS011;275;48.492;9.214;2022-10-16T14:40:25;4.60;;;2.40;;
577;SDS011;275;48.492;9.214;2022-10-16T14:42:54;4.30;;;3.00;;
577;SDS011;275;48.492;9.214;2022-10-16T14:45:22;5.70;;;2.97;;
577;SDS011;275;48.492;9.214;2022-10-16T14:47:54;3.70;;;2.57;;
577;SDS011;275;48.492;9.214;2022-10-16T14:50:22;4.17;;;2.27;;
577;SDS011;275;48.492;9.214;2022-10-16T14:52:49;3.80;;;2.37;;
577;SDS011;275;48.492;9.214;2022-10-16T14:55:16;6.80;;;2.80;;
577;SDS011;275;48.492;9.214;2022-10-16T14:57:44;5.60;;;3.37;;
577;SDS011;275;48.492;9.214;2022-10-16T15:00:18;4.90;;;3.17;;
577;SDS011;275;48.492;9.214;2022-10-16T15:02:47;7.10;;;3.77;;
577;SDS011;275;48.492;9.214;2022-10-16T15:05:17;3.80;;;2.43;;
577;SDS011;275;48.492;9.214;2022-10-16T15:07:45;4.60;;;2.20;;
577;SDS011;275;48.492;9.214;2022-10-16T15:10:13;5.40;;;3.30;;
577;SDS011;275;48.492;9.214;2022-10-16T15:12:40;4.87;;;3.03;;
577;SDS011;275;48.492;9.214;2022-10-16T15:15:15;5.60;;;3.20;;
577;SDS011;275;48.492;9.214;2022-10-16T15:17:51;5.20;;;3.00;;
577;SDS011;275;48.492;9.214;2022-10-16T15:20:22;3.37;;;2.40;;
577;SDS011;275;48.492;9.214;2022-10-16T15:22:49;7.40;;;2.87;;
577;SDS011;275;48.492;9.214;2022-10-16T15:25:18;4.70;;;3.17;;
577;SDS011;275;48.492;9.214;2022-10-16T15:27:57;6.63;;;3.47;;
577;SDS011;275;48.492;9.214;2022-10-16T15:30:24;5.80;;;3.13;;
577;SDS011;275;48.492;9.214;2022-10-16T15:32:51;7.10;;;3.30;;
577;SDS011;275;48.492;9.214;2022-10-16T15:35:18;5.70;;;3.20;;
577;SDS011;275;48.492;9.214;2022-10-16T15:37:47;6.07;;;3.73;;
577;SDS011;275;48.492;9.214;2022-10-16T15:40:15;5.93;;;3.80;;
577;SDS011;275;48.492;9.214;2022-10-16T15:42:42;5.30;;;2.53;;
577;SDS011;275;48.492;9.214;2022-10-16T15:45:09;6.17;;;2.87;;
577;SDS011;275;48.492;9.214;2022-10-16T15:47:37;4.10;;;3.20;;
577;SDS011;275;48.492;9.214;2022-10-16T15:50:04;5.20;;;3.33;;
577;SDS011;275;48.492;9.214;2022-10-16T15:52:31;4.90;;;3.73;;
577;SDS011;275;48.492;9.214;2022-10-16T15:54:59;3.97;;;3.10;;
577;SDS011;275;48.492;9.214;2022-10-16T15:57:27;6.23;;;4.30;;
577;SDS011;275;48.492;9.214;2022-10-16T15:59:54;5.67;;;4.10;;
577;SDS011;275;48.492;9.214;2022-10-16T16:02:21;4.87;;;3.07;;
577;SDS011;275;48.492;9.214;2022-10-16T16:04:48;5.10;;;3.43;;
577;SDS011;275;48.492;9.214;2022-10-16T16:07:15;6.47;;;3.90;;
577;SDS011;275;48.492;9.214;2022-10-16T16:09:42;4.43;;;3.70;;
577;SDS011;275;48.492;9.214;2022-10-16T16:12:11;7.90;;;3.07;;
577;SDS011;275;48.492;9.214;2022-10-16T16:14:38;5.30;;;2.80;;